Time;durP1;ratioP1;P1;durP2;ratioP2;P2;SDS_P1;SDS_P2;PMS_P1;PMS_P2;Temp;Humidity;BMP_temperature;BMP_pressure;BME280_temperature;BME280_humidity;BME280_pressure;Samples;Min_cycle;Max_cycle;Signal;HPM_P1;HPM_P2
2021/12/17 00:00:59;;;;;;;35.65;9.02;;;7.60;99.90;;;;;;4892872;29;20045;-80
2021/12/17 00:03:35;;;;;;;28.95;8.32;;;7.60;99.90;;;;;;4892449;29;20073;-80
2021/12/17 00:06:17;;;;;;;35.22;8.82;;;7.60;99.90;;;;;;4892398;29;20052;-80
2021/12/17 00:08:47;;;;;;;26.25;8.88;;;7.60;99.90;;;;;;4872058;29;20052;-80
2021/12/17 00:11:13;;;;;;;34.88;8.85;;;7.60;99.90;;;;;;4907897;29;20135;-80
2021/12/17 00:13:42;;;;;;;33.15;9.20;;;7.50;99.90;;;;;;4892908;29;20132;-80
2021/12/17 00:16:15;;;;;;;24.17;7.85;;;7.50;99.90;;;;;;4907836;29;20451;-81
2021/12/17 00:18:54;;;;;;;24.38;8.20;;;7.50;99.90;;;;;;4893002;29;20502;-82
2021/12/17 00:48:45;;;;;;;40.47;9.10;;;7.50;99.90;;;;;;4902548;29;20507;-81
2021/12/17 00:54:08;;;;;;;34.60;8.23;;;7.50;99.90;;;;;;4886167;29;20517;-82
2021/12/17 00:56:35;;;;;;;33.60;8.73;;;7.50;99.90;;;;;;4892830;29;20048;-82
2021/12/17 00:59:00;;;;;;;29.30;7.78;;;7.40;99.90;;;;;;4892362;29;20048;-82
2021/12/17 01:01:27;;;;;;;33.28;9.07;;;7.50;99.90;;;;;;4891455;29;20052;-82
2021/12/17 01:03:54;;;;;;;36.53;8.85;;;7.50;99.90;;;;;;4891973;29;20052;-82
2021/12/17 01:06:20;;;;;;;41.13;9.52;;;7.50;99.90;;;;;;4892422;29;20506;-81
2021/12/17 01:08:47;;;;;;;48.17;10.07;;;7.50;99.90;;;;;;4891470;29;20052;-81
2021/12/17 01:11:13;;;;;;;47.70;9.75;;;7.50;99.90;;;;;;4891481;29;20037;-81
2021/12/17 01:13:41;;;;;;;34.55;9.02;;;7.50;99.90;;;;;;4891094;29;20060;-81
2021/12/17 01:16:08;;;;;;;37.42;9.25;;;7.50;99.90;;;;;;4889747;29;20104;-81
2021/12/17 01:21:30;;;;;;;29.63;8.73;;;7.40;99.90;;;;;;4890306;29;20056;-81
2021/12/17 01:24:38;;;;;;;38.40;9.38;;;7.40;99.90;;;;;;4885919;29;20128;-81
2021/12/17 01:35:21;;;;;;;42.67;9.02;;;7.40;99.90;;;;;;4889000;29;20495;-81
2021/12/17 01:40:59;;;;;;;41.00;8.73;;;7.50;99.90;;;;;;4889873;29;20086;-81
2021/12/17 01:43:11;;;;;;;38.22;8.77;;;7.40;99.90;;;;;;4888503;29;20566;-81
2021/12/17 01:45:39;;;;;;;57.63;10.07;;;7.40;99.90;;;;;;4890827;29;20534;-80
2021/12/17 01:48:10;;;;;;;57.85;10.43;;;7.40;99.90;;;;;;4891469;29;20502;-81
2021/12/17 01:59:25;;;;;;;43.95;9.02;;;7.40;99.90;;;;;;4885040;29;20056;-81
2021/12/17 02:01:53;;;;;;;;;;;7.40;99.90;;;;;;4889974;29;20052;-81
2021/12/17 02:04:19;;;;;;;50.35;9.48;;;7.40;99.90;;;;;;4900217;29;20381;-81
2021/12/17 02:06:45;;;;;;;46.92;9.75;;;7.40;99.90;;;;;;4890594;29;20466;-81
2021/12/17 02:09:54;;;;;;;40.88;9.98;;;7.40;99.90;;;;;;4884517;29;20080;-82
2021/12/17 02:20:39;;;;;;;46.10;8.95;;;7.40;99.90;;;;;;4890711;29;20503;-82
2021/12/17 02:29:48;;;;;;;31.17;6.93;;;7.40;99.90;;;;;;4891204;29;20053;-82
2021/12/17 02:32:17;;;;;;;26.23;6.60;;;7.40;99.90;;;;;;4889576;29;20048;-82
2021/12/17 02:37:20;;;;;;;38.13;8.05;;;7.40;99.90;;;;;;4885026;29;20052;-81
2021/12/17 02:45:30;;;;;;;42.97;8.02;;;7.40;99.90;;;;;;4900120;29;20106;-80
2021/12/17 02:47:59;;;;;;;36.88;7.85;;;7.40;99.90;;;;;;4885239;29;20087;-80
2021/12/17 02:50:26;;;;;;;32.20;7.93;;;7.40;99.90;;;;;;4889523;29;20041;-80
2021/12/17 02:52:55;;;;;;;36.08;8.05;;;7.40;99.90;;;;;;4888633;29;20076;-81
2021/12/17 02:55:22;;;;;;;32.00;7.85;;;7.40;99.90;;;;;;4905317;29;20141;-80
2021/12/17 02:57:49;;;;;;;48.28;8.60;;;7.40;99.90;;;;;;4890170;29;20048;-80
2021/12/17 03:00:16;;;;;;;49.72;9.32;;;7.40;99.90;;;;;;4889554;29;20079;-80
2021/12/17 03:02:44;;;;;;;50.28;9.27;;;7.40;99.90;;;;;;4900833;29;20056;-80
2021/12/17 03:05:11;;;;;;;53.58;9.52;;;7.40;99.90;;;;;;4889991;29;20119;-81
2021/12/17 03:07:41;;;;;;;48.53;9.98;;;7.40;99.90;;;;;;4870586;29;20052;-80
2021/12/17 03:10:10;;;;;;;56.42;10.18;;;7.40;99.90;;;;;;4890693;29;20055;-80
2021/12/17 03:12:45;;;;;;;45.65;9.63;;;7.40;99.90;;;;;;4873493;29;20089;-80
2021/12/17 03:15:31;;;;;;;60.03;11.13;;;7.40;99.90;;;;;;4889983;29;20068;-81
2021/12/17 03:23:41;;;;;;;41.05;9.30;;;7.60;99.90;;;;;;4883817;29;20052;-80
2021/12/17 03:26:12;;;;;;;40.13;9.13;;;7.40;99.90;;;;;;4890111;29;20045;-80
2021/12/17 03:28:41;;;;;;;46.83;9.57;;;7.40;99.90;;;;;;4885449;29;20059;-80
2021/12/17 03:31:08;;;;;;;29.90;8.88;;;7.70;99.90;;;;;;4883924;29;20080;-80
2021/12/17 03:33:34;;;;;;;39.15;9.13;;;7.40;99.90;;;;;;4885178;29;20123;-80
2021/12/17 03:36:00;;;;;;;45.42;9.88;;;7.40;99.90;;;;;;4890000;29;20080;-80
2021/12/17 03:38:27;;;;;;;60.30;10.93;;;7.40;99.90;;;;;;4890192;29;20056;-80
2021/12/17 03:41:04;;;;;;;54.58;11.45;;;7.40;99.90;;;;;;4883717;29;20407;-80
2021/12/17 03:43:32;;;;;;;58.60;10.85;;;7.40;99.90;;;;;;4885407;29;20054;-80
2021/12/17 03:45:59;;;;;;;34.85;10.15;;;7.40;99.90;;;;;;4888835;29;20048;-80
2021/12/17 03:48:25;;;;;;;58.88;12.65;;;7.40;99.90;;;;;;4885176;29;20053;-81
2021/12/17 03:50:51;;;;;;;59.08;12.38;;;7.40;99.90;;;;;;4890036;29;20056;-80
2021/12/17 03:53:17;;;;;;;60.50;12.95;;;7.70;99.90;;;;;;4891309;29;20052;-81
2021/12/17 03:55:42;;;;;;;59.10;12.48;;;7.40;99.90;;;;;;4893798;29;20120;-82
2021/12/17 03:58:09;;;;;;;51.20;12.27;;;7.50;99.90;;;;;;4892137;29;20048;-82
2021/12/17 04:00:34;;;;;;;58.15;12.07;;;7.40;99.90;;;;;;4887801;29;20045;-82
2021/12/17 04:03:02;;;;;;;49.70;11.38;;;7.40;99.90;;;;;;4888921;29;20092;-82
2021/12/17 04:05:27;;;;;;;54.25;11.93;;;7.50;99.90;;;;;;4877470;29;20048;-82
2021/12/17 04:07:53;;;;;;;69.20;12.73;;;7.50;99.90;;;;;;4893508;29;20071;-83
2021/12/17 04:10:20;;;;;;;55.47;12.32;;;7.50;99.90;;;;;;4891345;29;20127;-82
2021/12/17 04:15:15;;;;;;;68.28;13.50;;;7.50;99.90;;;;;;4892234;29;20056;-82
2021/12/17 04:17:52;;;;;;;70.32;13.50;;;7.50;99.90;;;;;;4893372;29;20417;-82
2021/12/17 04:20:18;;;;;;;69.05;14.40;;;7.50;99.90;;;;;;4892974;29;20052;-82
2021/12/17 04:22:43;;;;;;;45.75;12.20;;;8.60;99.90;;;;;;4887866;29;20495;-82
2021/12/17 04:25:09;;;;;;;62.65;13.40;;;7.60;99.90;;;;;;4884567;29;20071;-81
2021/12/17 04:27:35;;;;;;;82.65;15.02;;;7.50;99.90;;;;;;4876777;29;20471;-82
2021/12/17 04:30:01;;;;;;;91.25;16.65;;;7.60;99.90;;;;;;4892885;29;20073;-82
2021/12/17 04:32:27;;;;;;;80.22;15.23;;;7.60;99.90;;;;;;4875752;29;20048;-81
2021/12/17 04:34:52;;;;;;;53.22;13.60;;;7.60;99.90;;;;;;4892517;29;20060;-82
2021/12/17 04:37:19;;;;;;;67.68;14.02;;;7.60;99.90;;;;;;4892250;29;20055;-82
2021/12/17 04:39:44;;;;;;;100.90;16.30;;;8.00;99.90;;;;;;4892571;29;20067;-82
2021/12/17 04:42:24;;;;;;;78.28;14.52;;;8.50;99.90;;;;;;4892316;29;20395;-82
2021/12/17 04:44:54;;;;;;;53.63;12.82;;;7.60;99.90;;;;;;4891687;29;20407;-82
2021/12/17 04:57:54;;;;;;;73.05;14.10;;;7.60;99.90;;;;;;4892137;29;20048;-82
2021/12/17 05:00:24;;;;;;;51.05;13.85;;;7.60;99.90;;;;;;4902731;29;20127;-82
2021/12/17 05:02:53;;;;;;;44.40;12.98;;;7.70;99.90;;;;;;4891809;29;20080;-82
2021/12/17 05:05:22;;;;;;;46.60;11.68;;;7.60;99.90;;;;;;4907329;29;20127;-82
2021/12/17 05:07:53;;;;;;;62.55;13.07;;;7.60;99.90;;;;;;4876628;29;20049;-82
2021/12/17 05:18:29;;;;;;;60.65;14.27;;;7.70;99.90;;;;;;4890085;29;20495;-82
2021/12/17 05:21:07;;;;;;;61.08;13.15;;;7.70;99.90;;;;;;4891858;29;20084;-82
2021/12/17 05:23:38;;;;;;;67.90;14.93;;;7.70;99.90;;;;;;4891390;29;20080;-82
2021/12/17 05:26:07;;;;;;;49.80;12.40;;;7.70;99.90;;;;;;4887103;29;20057;-82
2021/12/17 05:28:33;;;;;;;64.38;12.88;;;7.70;99.90;;;;;;4887318;29;20064;-83
2021/12/17 05:30:59;;;;;;;57.88;13.63;;;7.70;99.90;;;;;;4872122;29;20127;-81
2021/12/17 05:33:26;;;;;;;57.92;14.13;;;7.70;99.90;;;;;;4890610;29;20167;-82
2021/12/17 05:35:52;;;;;;;59.05;14.18;;;7.70;99.90;;;;;;4906815;29;20049;-81
2021/12/17 05:38:20;;;;;;;73.07;16.23;;;7.70;99.90;;;;;;4891457;29;20040;-82
2021/12/17 05:40:47;;;;;;;48.63;13.63;;;7.70;99.90;;;;;;4890409;29;20135;-82
2021/12/17 05:43:15;;;;;;;50.88;13.85;;;7.80;99.90;;;;;;4907162;29;20044;-81
2021/12/17 05:48:26;;;;;;;45.58;13.48;;;7.70;99.90;;;;;;4886117;29;20096;-82
2021/12/17 05:50:58;;;;;;;46.03;13.02;;;7.70;99.90;;;;;;4891650;29;20076;-83
2021/12/17 05:53:25;;;;;;;39.35;12.95;;;7.70;99.90;;;;;;4890886;29;20044;-81
2021/12/17 05:55:52;;;;;;;45.60;12.65;;;7.70;99.90;;;;;;4891180;29;20097;-81
2021/12/17 05:58:18;;;;;;;51.00;12.95;;;7.80;99.90;;;;;;4884003;29;20555;-81
2021/12/17 06:00:45;;;;;;;39.58;11.85;;;7.80;99.90;;;;;;4890371;29;20052;-81
2021/12/17 06:03:11;;;;;;;55.88;12.98;;;7.70;99.90;;;;;;4890276;29;20131;-81
2021/12/17 06:05:37;;;;;;;53.50;13.20;;;7.80;99.90;;;;;;4884533;29;20052;-82
2021/12/17 06:08:04;;;;;;;59.42;13.43;;;8.50;99.90;;;;;;4870306;29;20048;-82
2021/12/17 06:10:30;;;;;;;35.83;9.77;;;7.70;99.90;;;;;;4890243;29;20048;-82
2021/12/17 06:12:55;;;;;;;49.50;12.52;;;7.70;99.90;;;;;;4891592;29;20049;-81
2021/12/17 06:15:23;;;;;;;43.95;11.93;;;7.80;99.90;;;;;;4888858;29;20119;-81
2021/12/17 06:17:50;;;;;;;57.03;13.40;;;7.70;99.90;;;;;;4890888;29;20060;-83
2021/12/17 06:20:19;;;;;;;62.42;13.85;;;7.70;99.90;;;;;;4891718;29;20068;-83
2021/12/17 06:22:48;;;;;;;63.83;14.45;;;7.80;99.90;;;;;;4905399;29;20048;-83
2021/12/17 06:25:14;;;;;;;57.53;13.75;;;7.70;99.90;;;;;;4891057;29;20071;-81
2021/12/17 06:27:41;;;;;;;40.20;12.02;;;7.80;99.90;;;;;;4892294;29;20132;-81
2021/12/17 06:30:11;;;;;;;53.08;12.73;;;7.80;99.90;;;;;;4885663;29;20502;-81
2021/12/17 06:32:37;;;;;;;56.58;13.25;;;7.80;99.90;;;;;;4905843;29;20053;-83
2021/12/17 06:35:04;;;;;;;57.38;13.30;;;7.80;99.90;;;;;;4867776;29;20045;-83
2021/12/17 06:37:30;;;;;;;41.75;12.10;;;7.80;99.90;;;;;;4906248;29;20392;-83
2021/12/17 06:39:56;;;;;;;64.88;13.73;;;7.80;99.90;;;;;;4891731;29;20056;-81
2021/12/17 06:42:21;;;;;;;51.72;13.30;;;7.80;99.90;;;;;;4890706;29;20049;-80
2021/12/17 06:44:48;;;;;;;41.00;12.02;;;7.80;99.90;;;;;;4867304;29;20045;-81
2021/12/17 06:47:27;;;;;;;58.88;12.38;;;7.80;99.90;;;;;;4892647;29;20112;-81
2021/12/17 07:32:45;;;;;;;37.88;10.48;;;7.80;99.90;;;;;;4891806;29;20057;-80
2021/12/17 07:40:10;;;;;;;46.58;10.52;;;7.80;99.90;;;;;;4888539;29;20394;-81
2021/12/17 07:42:37;;;;;;;40.70;9.82;;;7.80;99.90;;;;;;4886540;29;20048;-80
2021/12/17 07:45:04;;;;;;;41.45;10.57;;;7.80;99.90;;;;;;4893502;29;20056;-80
2021/12/17 07:47:30;;;;;;;42.15;10.48;;;7.80;99.90;;;;;;4892984;29;20059;-80
2021/12/17 07:49:55;;;;;;;38.17;9.48;;;7.80;99.90;;;;;;4894700;29;20053;-80
2021/12/17 07:52:22;;;;;;;36.53;9.70;;;7.80;99.90;;;;;;4894322;29;20048;-80
2021/12/17 07:54:47;;;;;;;33.38;8.65;;;7.80;99.90;;;;;;4894396;29;20056;-80
2021/12/17 07:57:13;;;;;;;36.80;9.27;;;7.80;99.90;;;;;;4895145;29;20140;-80
2021/12/17 07:59:40;;;;;;;39.58;9.63;;;8.10;99.90;;;;;;4908782;29;21039;-80
2021/12/17 08:02:06;;;;;;;39.70;9.75;;;7.80;99.90;;;;;;4894685;29;20048;-80
2021/12/17 08:04:33;;;;;;;33.25;8.65;;;7.70;99.90;;;;;;4894382;29;20120;-81
2021/12/17 08:06:59;;;;;;;35.60;9.30;;;7.80;99.90;;;;;;4894335;29;20185;-80
2021/12/17 08:09:25;;;;;;;31.75;9.25;;;7.70;99.90;;;;;;4894841;29;20131;-80
2021/12/17 08:11:56;;;;;;;29.02;8.82;;;7.80;99.90;;;;;;4893212;29;20181;-80
2021/12/17 08:14:27;;;;;;;28.63;8.63;;;7.80;99.90;;;;;;4893945;29;20057;-80
2021/12/17 08:25:47;;;;;;;36.58;9.48;;;7.80;99.90;;;;;;4889481;29;20529;-80
2021/12/17 08:32:44;;;;;;;24.65;7.30;;;7.80;99.90;;;;;;4890225;29;20059;-80
2021/12/17 08:35:11;;;;;;;25.10;8.05;;;7.80;99.90;;;;;;4891826;29;20037;-80
2021/12/17 08:37:37;;;;;;;21.05;6.93;;;7.80;99.90;;;;;;4872022;29;20415;-80
2021/12/17 08:40:04;;;;;;;24.42;7.45;;;7.90;99.90;;;;;;4888283;29;20053;-80
2021/12/17 08:42:30;;;;;;;18.23;7.90;;;7.80;99.90;;;;;;4887622;29;20060;-80
2021/12/17 08:44:56;;;;;;;21.88;7.25;;;7.90;99.90;;;;;;4892130;29;20491;-80
2021/12/17 08:47:22;;;;;;;21.08;6.75;;;7.90;99.90;;;;;;4872021;29;20052;-79
2021/12/17 08:49:50;;;;;;;22.33;6.88;;;7.90;99.90;;;;;;4887862;29;20056;-79
2021/12/17 08:52:16;;;;;;;17.20;7.47;;;7.90;99.90;;;;;;4887048;29;20044;-82
2021/12/17 08:54:42;;;;;;;20.52;6.88;;;7.90;99.90;;;;;;4887649;29;20071;-78
2021/12/17 08:57:09;;;;;;;19.02;6.95;;;8.50;99.90;;;;;;4895295;29;20104;-77
2021/12/17 08:59:36;;;;;;;17.48;6.50;;;7.90;99.90;;;;;;4888449;29;20150;-78
2021/12/17 09:02:02;;;;;;;21.15;7.25;;;8.00;99.90;;;;;;4893677;29;20798;-77
2021/12/17 09:04:29;;;;;;;16.48;6.65;;;8.00;99.90;;;;;;4894574;29;20053;-78
2021/12/17 09:06:55;;;;;;;18.48;6.53;;;8.00;99.90;;;;;;4894330;29;20045;-77
2021/12/17 09:09:22;;;;;;;18.88;6.53;;;8.00;99.90;;;;;;4909898;29;20135;-77
2021/12/17 09:11:49;;;;;;;15.07;6.68;;;8.10;99.90;;;;;;4892069;29;20657;-77
2021/12/17 09:14:19;;;;;;;17.25;6.95;;;8.30;99.90;;;;;;4891630;29;20045;-77
2021/12/17 09:16:50;;;;;;;17.95;7.03;;;8.10;99.90;;;;;;4885604;29;20056;-77
2021/12/17 09:19:16;;;;;;;14.65;7.00;;;8.10;99.90;;;;;;4907059;29;20052;-78
2021/12/17 09:21:43;;;;;;;17.65;7.72;;;8.10;99.90;;;;;;4886599;29;20158;-78
2021/12/17 09:24:09;;;;;;;16.55;7.82;;;8.10;99.90;;;;;;4886259;29;20056;-78
2021/12/17 09:26:35;;;;;;;11.70;6.45;;;8.20;99.90;;;;;;4885573;29;20132;-78
2021/12/17 09:29:01;;;;;;;15.32;7.53;;;8.20;99.90;;;;;;4887468;29;20132;-77
2021/12/17 09:31:27;;;;;;;13.18;7.40;;;8.20;99.90;;;;;;4892335;29;20059;-78
2021/12/17 09:33:53;;;;;;;13.85;7.57;;;8.20;99.90;;;;;;4887789;29;20076;-78
2021/12/17 09:36:20;;;;;;;12.73;7.50;;;8.20;99.90;;;;;;4894326;29;20518;-78
2021/12/17 09:38:49;;;;;;;10.57;6.72;;;8.30;99.90;;;;;;4908710;29;20161;-78
2021/12/17 09:41:17;;;;;;;12.48;7.60;;;8.30;99.90;;;;;;4870773;29;20053;-80
2021/12/17 09:43:43;;;;;;;15.25;8.55;;;8.30;99.90;;;;;;4885113;29;20063;-80
2021/12/17 09:46:09;;;;;;;12.68;7.60;;;8.40;99.90;;;;;;4892748;29;20132;-80
2021/12/17 09:48:36;;;;;;;17.55;10.13;;;8.50;99.90;;;;;;4893096;29;20135;-81
2021/12/17 09:51:04;;;;;;;19.42;11.80;;;8.40;99.90;;;;;;4891479;29;20052;-80
2021/12/17 09:53:30;;;;;;;19.65;11.20;;;8.40;99.90;;;;;;4870235;29;20553;-80
2021/12/17 09:55:56;;;;;;;16.10;11.27;;;8.40;99.90;;;;;;4892571;29;20165;-80
2021/12/17 09:58:22;;;;;;;17.80;11.48;;;8.50;99.90;;;;;;4886823;29;20049;-81
2021/12/17 10:00:47;;;;;;;16.77;10.15;;;8.50;99.90;;;;;;4875905;29;20164;-81
2021/12/17 10:03:13;;;;;;;13.82;10.55;;;8.50;99.90;;;;;;4892864;29;20063;-81
2021/12/17 10:05:40;;;;;;;14.05;9.88;;;8.50;99.90;;;;;;4892867;29;20059;-82
2021/12/17 10:08:13;;;;;;;12.60;8.70;;;8.50;99.90;;;;;;4908095;29;20066;-81
2021/12/17 10:10:42;;;;;;;12.55;8.18;;;8.60;99.90;;;;;;4908165;29;20067;-80
2021/12/17 10:13:19;;;;;;;11.48;8.00;;;8.60;99.90;;;;;;4892017;29;20052;-80
2021/12/17 10:15:51;;;;;;;11.18;7.55;;;9.00;99.90;;;;;;4906373;29;20064;-80
2021/12/17 10:18:18;;;;;;;10.05;7.20;;;8.60;99.90;;;;;;4900821;29;20056;-77
2021/12/17 10:20:56;;;;;;;9.60;7.22;;;8.70;99.90;;;;;;4892314;29;20139;-79
2021/12/17 10:23:23;;;;;;;8.68;6.50;;;8.70;99.90;;;;;;4885239;29;20084;-75
2021/12/17 10:25:49;;;;;;;8.35;6.80;;;8.70;99.90;;;;;;4890964;29;20052;-77
2021/12/17 10:28:16;;;;;;;8.88;6.70;;;8.70;99.90;;;;;;4892293;29;20053;-81
2021/12/17 10:30:45;;;;;;;9.55;7.50;;;8.80;99.90;;;;;;4891577;29;20067;-77
2021/12/17 10:33:19;;;;;;;9.15;6.53;;;8.80;99.90;;;;;;4907677;29;20044;-77
2021/12/17 10:35:48;;;;;;;8.68;6.35;;;8.80;99.90;;;;;;4884470;29;20123;-78
2021/12/17 10:38:17;;;;;;;9.82;6.13;;;8.80;99.90;;;;;;4869432;29;20419;-76
2021/12/17 10:40:53;;;;;;;11.07;6.10;;;8.80;99.90;;;;;;4891610;29;20056;-78
2021/12/17 10:43:27;;;;;;;8.90;6.60;;;8.80;99.90;;;;;;4901615;29;20044;-77
2021/12/17 10:46:21;;;;;;;10.85;6.70;;;8.90;99.90;;;;;;4891661;29;20049;-77
2021/12/17 10:48:55;;;;;;;9.88;6.35;;;8.90;99.90;;;;;;4891861;29;20107;-79
2021/12/17 10:54:19;;;;;;;10.07;5.72;;;8.90;99.90;;;;;;4884499;29;20131;-77
2021/12/17 10:56:51;;;;;;;10.25;5.88;;;8.80;99.90;;;;;;4905372;29;20116;-80
2021/12/17 10:59:25;;;;;;;6.97;5.60;;;8.90;99.90;;;;;;4889332;29;20060;-77
2021/12/17 11:01:54;;;;;;;10.35;7.40;;;8.90;99.90;;;;;;4891558;29;20084;-78
2021/12/17 11:04:24;;;;;;;8.57;7.13;;;8.90;99.90;;;;;;4896050;29;20131;-78
2021/12/17 11:07:00;;;;;;;7.63;5.60;;;8.90;99.90;;;;;;4894715;29;20550;-78
2021/12/17 11:09:35;;;;;;;8.98;5.50;;;9.00;99.90;;;;;;4895229;29;20088;-77
2021/12/17 11:12:15;;;;;;;6.03;4.95;;;8.90;99.90;;;;;;4887999;29;20044;-77
2021/12/17 11:14:47;;;;;;;5.95;4.90;;;8.90;99.90;;;;;;4894439;29;20056;-77
2021/12/17 11:17:14;;;;;;;6.05;4.90;;;9.00;99.90;;;;;;4894171;29;20060;-78
2021/12/17 11:19:41;;;;;;;5.82;4.45;;;9.00;99.90;;;;;;4894477;29;20063;-80
2021/12/17 11:22:07;;;;;;;5.72;4.38;;;9.00;99.90;;;;;;4873339;29;20095;-77
2021/12/17 11:24:35;;;;;;;5.55;4.78;;;9.00;99.90;;;;;;4893417;29;20052;-77
2021/12/17 11:27:03;;;;;;;5.30;3.70;;;9.00;99.90;;;;;;4892954;29;21240;-78
2021/12/17 11:29:29;;;;;;;5.47;4.22;;;9.00;99.90;;;;;;4889543;29;20044;-78
2021/12/17 11:31:55;;;;;;;5.40;3.90;;;9.00;99.90;;;;;;4891321;29;20075;-78
2021/12/17 11:34:21;;;;;;;4.88;3.75;;;9.00;99.90;;;;;;4890051;29;20040;-78
2021/12/17 11:36:47;;;;;;;5.43;4.22;;;9.00;99.90;;;;;;4892779;29;20055;-77
2021/12/17 11:39:30;;;;;;;5.97;3.83;;;9.00;99.90;;;;;;4892066;29;20052;-77
2021/12/17 11:42:18;;;;;;;4.55;3.45;;;9.10;99.90;;;;;;4909900;29;20513;-77
2021/12/17 11:44:53;;;;;;;3.92;3.33;;;9.10;99.90;;;;;;4892478;29;20053;-77
2021/12/17 11:47:20;;;;;;;3.63;3.13;;;9.10;99.90;;;;;;4894778;29;20093;-77
2021/12/17 11:49:49;;;;;;;4.15;2.97;;;9.10;99.90;;;;;;4889021;29;20064;-77
2021/12/17 11:52:34;;;;;;;4.78;2.97;;;9.10;99.90;;;;;;4893672;29;20096;-77
2021/12/17 11:55:33;;;;;;;3.70;2.70;;;9.10;99.90;;;;;;4893926;29;20045;-78
2021/12/17 11:58:10;;;;;;;3.83;2.83;;;9.10;99.90;;;;;;4894143;29;20091;-78
2021/12/17 12:00:39;;;;;;;4.00;2.60;;;9.10;99.90;;;;;;4894914;29;20119;-77
2021/12/17 12:03:32;;;;;;;4.45;2.72;;;9.10;99.90;;;;;;4893909;29;20060;-77
2021/12/17 12:05:59;;;;;;;3.85;2.97;;;9.10;99.90;;;;;;4870838;29;20057;-77
2021/12/17 12:08:39;;;;;;;5.68;3.03;;;9.10;99.90;;;;;;4903182;29;20052;-77
2021/12/17 12:11:25;;;;;;;3.78;3.28;;;9.20;99.90;;;;;;4893969;29;20762;-77
2021/12/17 12:13:53;;;;;;;5.97;3.20;;;9.20;99.90;;;;;;4908741;29;20050;-77
2021/12/17 12:16:24;;;;;;;3.97;3.08;;;9.20;99.90;;;;;;4894492;29;20385;-77
2021/12/17 12:18:54;;;;;;;3.80;2.80;;;9.10;99.90;;;;;;4895174;29;20088;-77
2021/12/17 12:21:23;;;;;;;3.83;2.90;;;9.10;99.90;;;;;;4887143;29;20048;-77
2021/12/17 12:23:55;;;;;;;5.22;2.97;;;9.20;99.90;;;;;;4910843;29;20052;-77
2021/12/17 12:26:27;;;;;;;3.17;2.35;;;9.20;99.90;;;;;;4887219;29;20055;-77
2021/12/17 12:28:57;;;;;;;4.88;2.40;;;9.20;99.90;;;;;;4894396;29;20088;-77
2021/12/17 12:34:04;;;;;;;4.05;2.80;;;9.20;99.90;;;;;;4910134;29;20044;-77
2021/12/17 12:36:51;;;;;;;4.00;2.97;;;9.20;99.90;;;;;;4894708;29;20052;-77
2021/12/17 12:39:39;;;;;;;4.13;2.92;;;9.20;99.90;;;;;;4893709;29;20599;-77
2021/12/17 12:42:23;;;;;;;3.60;2.63;;;9.20;99.90;;;;;;4892691;29;20112;-77
2021/12/17 12:44:48;;;;;;;2.92;2.42;;;9.20;99.90;;;;;;4894202;29;20116;-77
2021/12/17 12:47:20;;;;;;;5.32;2.80;;;9.20;99.90;;;;;;4894042;29;20491;-77
2021/12/17 12:50:06;;;;;;;4.47;3.70;;;9.20;99.90;;;;;;4908461;29;20090;-77
2021/12/17 12:52:40;;;;;;;4.47;3.55;;;9.20;99.90;;;;;;4908443;29;20074;-77
2021/12/17 12:55:14;;;;;;;4.30;2.90;;;9.20;99.90;;;;;;4893221;29;20062;-77
2021/12/17 12:57:47;;;;;;;4.45;2.75;;;9.30;99.90;;;;;;4893961;29;20056;-78
2021/12/17 13:00:15;;;;;;;4.68;2.70;;;9.20;99.90;;;;;;4893375;29;20104;-78
2021/12/17 13:02:42;;;;;;;4.15;2.75;;;9.20;99.90;;;;;;4892705;29;20157;-78
2021/12/17 13:05:10;;;;;;;3.50;2.70;;;9.20;99.90;;;;;;4889185;29;20454;-77
2021/12/17 13:07:38;;;;;;;4.22;3.03;;;9.20;99.90;;;;;;4893585;29;20067;-78
2021/12/17 13:10:13;;;;;;;3.47;2.40;;;9.30;99.90;;;;;;4909245;29;20052;-77
2021/12/17 13:12:40;;;;;;;3.42;2.35;;;9.30;99.90;;;;;;4893009;29;20084;-77
2021/12/17 13:24:05;;;;;;;6.78;3.47;;;9.20;99.90;;;;;;4885029;29;20096;-78
2021/12/17 13:26:31;;;;;;;5.05;2.80;;;9.30;99.90;;;;;;4907434;29;20052;-78
2021/12/17 13:29:09;;;;;;;4.55;3.15;;;9.20;99.90;;;;;;4891909;29;20052;-77
2021/12/17 13:31:39;;;;;;;5.07;2.88;;;9.30;99.90;;;;;;4892173;29;20048;-78
2021/12/17 13:34:17;;;;;;;4.20;3.13;;;9.30;99.90;;;;;;4891016;29;20127;-77
2021/12/17 13:37:04;;;;;;;5.93;3.35;;;9.30;99.90;;;;;;4868966;29;20088;-77
2021/12/17 13:39:33;;;;;;;5.85;3.70;;;9.20;99.90;;;;;;4888996;29;20063;-77
2021/12/17 13:41:59;;;;;;;4.93;3.78;;;9.20;99.90;;;;;;4907247;29;20063;-78
2021/12/17 13:44:34;;;;;;;5.35;3.88;;;9.30;99.90;;;;;;4885977;29;20049;-77
2021/12/17 13:47:14;;;;;;;6.97;3.72;;;9.20;99.90;;;;;;4908075;29;20048;-79
2021/12/17 13:49:43;;;;;;;6.63;4.45;;;9.20;99.90;;;;;;4892862;29;20383;-77
2021/12/17 13:52:09;;;;;;;6.53;4.20;;;9.50;99.90;;;;;;4885068;29;20398;-77
2021/12/17 13:54:36;;;;;;;8.57;5.00;;;9.20;99.90;;;;;;4908265;29;20135;-77
2021/12/17 13:57:03;;;;;;;7.25;4.60;;;9.20;99.90;;;;;;4908001;29;20112;-79
2021/12/17 13:59:31;;;;;;;8.48;4.82;;;9.20;99.90;;;;;;4891908;29;20880;-77
2021/12/17 14:01:57;;;;;;;7.03;5.30;;;9.20;99.90;;;;;;4869950;29;20410;-77
2021/12/17 14:04:23;;;;;;;8.25;5.18;;;9.20;99.90;;;;;;4884497;29;20124;-78
2021/12/17 14:06:53;;;;;;;8.65;5.68;;;9.20;99.90;;;;;;4885453;29;20052;-77
2021/12/17 14:09:23;;;;;;;8.55;5.53;;;9.20;99.90;;;;;;4892177;29;20418;-77
2021/12/17 14:11:49;;;;;;;6.80;4.93;;;9.20;99.90;;;;;;4885894;29;20052;-77
2021/12/17 14:14:24;;;;;;;5.60;4.10;;;9.20;99.90;;;;;;4892372;29;20058;-77
2021/12/17 14:16:58;;;;;;;4.88;3.83;;;9.20;99.90;;;;;;4907840;29;20092;-77
2021/12/17 14:19:39;;;;;;;5.32;3.72;;;9.20;99.90;;;;;;4884586;29;20120;-77
2021/12/17 14:22:26;;;;;;;5.47;3.78;;;9.20;99.90;;;;;;4890572;29;20080;-78
2021/12/17 14:24:52;;;;;;;5.47;4.07;;;9.20;99.90;;;;;;4892027;29;20833;-77
2021/12/17 14:27:18;;;;;;;4.13;3.60;;;9.20;99.90;;;;;;4892342;29;20596;-77
2021/12/17 14:30:02;;;;;;;5.88;4.20;;;9.20;99.90;;;;;;4892120;29;20054;-77
2021/12/17 14:32:28;;;;;;;7.03;4.90;;;9.20;99.90;;;;;;4891845;29;20167;-77
2021/12/17 14:34:53;;;;;;;6.95;5.03;;;9.10;99.90;;;;;;4885766;29;20112;-77
2021/12/17 14:37:19;;;;;;;6.93;4.25;;;9.10;99.90;;;;;;4891880;29;20399;-77
2021/12/17 14:39:47;;;;;;;8.05;5.30;;;9.10;99.90;;;;;;4885555;29;20066;-77
2021/12/17 14:42:29;;;;;;;6.93;5.00;;;9.10;99.90;;;;;;4906284;29;20180;-77
2021/12/17 14:45:00;;;;;;;6.55;4.70;;;9.10;99.90;;;;;;4907694;29;20052;-77
2021/12/17 14:47:32;;;;;;;7.13;4.75;;;9.10;99.90;;;;;;4892037;29;20072;-77
2021/12/17 15:01:29;;;;;;;12.35;4.70;;;9.00;99.90;;;;;;4884762;29;20052;-78
2021/12/17 15:06:07;;;;;;;9.20;4.45;;;9.00;99.90;;;;;;4884293;29;20063;-79
2021/12/17 15:08:33;;;;;;;6.50;5.00;;;9.00;99.90;;;;;;4891143;29;20140;-76
2021/12/17 15:11:04;;;;;;;7.57;4.57;;;8.90;99.90;;;;;;4885837;29;20708;-78
2021/12/17 15:13:33;;;;;;;6.20;4.50;;;8.00;99.90;;;;;;4890928;29;20045;-78
2021/12/17 15:15:59;;;;;;;6.80;4.70;;;8.90;99.90;;;;;;4891789;29;20060;-78
2021/12/17 15:18:24;;;;;;;9.02;4.88;;;8.90;99.90;;;;;;4884312;29;20400;-77
2021/12/17 15:20:56;;;;;;;7.30;4.57;;;8.90;99.90;;;;;;4888907;29;20863;-78
2021/12/17 15:23:22;;;;;;;8.95;5.30;;;8.90;99.90;;;;;;4890957;29;20044;-77
2021/12/17 15:25:50;;;;;;;10.02;4.65;;;8.80;99.90;;;;;;4891924;29;20238;-77
2021/12/17 15:28:18;;;;;;;8.55;4.93;;;8.80;99.90;;;;;;4907316;29;20052;-77
2021/12/17 15:30:49;;;;;;;7.75;4.90;;;8.80;99.90;;;;;;4891619;29;20061;-77
2021/12/17 15:33:15;;;;;;;8.57;5.38;;;8.80;99.90;;;;;;4884004;29;20049;-77
2021/12/17 15:35:43;;;;;;;7.20;5.38;;;8.80;99.90;;;;;;4889712;29;20045;-77
2021/12/17 15:38:09;;;;;;;6.95;5.03;;;8.80;99.90;;;;;;4890288;29;20049;-78
2021/12/17 15:40:42;;;;;;;6.70;5.00;;;8.80;99.90;;;;;;4886906;29;20402;-77
2021/12/17 15:43:08;;;;;;;7.15;5.28;;;8.80;99.90;;;;;;4905339;29;20091;-78
2021/12/17 15:45:38;;;;;;;6.97;5.40;;;8.80;99.90;;;;;;4886253;29;20052;-78
2021/12/17 15:48:05;;;;;;;6.55;5.63;;;8.80;99.90;;;;;;4891501;29;20052;-77
2021/12/17 15:50:32;;;;;;;7.18;5.70;;;8.80;99.90;;;;;;4891909;29;20052;-76
2021/12/17 15:52:58;;;;;;;7.05;5.68;;;8.80;99.90;;;;;;4887178;29;20052;-78
2021/12/17 15:55:26;;;;;;;7.25;5.75;;;8.80;99.90;;;;;;4893095;29;20061;-77
2021/12/17 15:57:54;;;;;;;10.18;6.07;;;8.80;99.90;;;;;;4887111;29;20040;-77
2021/12/17 16:00:22;;;;;;;7.22;5.70;;;8.80;99.90;;;;;;4886456;29;20072;-78
2021/12/17 16:02:47;;;;;;;8.93;5.43;;;8.80;99.90;;;;;;4888340;29;20048;-77
2021/12/17 16:05:16;;;;;;;7.57;5.38;;;8.80;99.90;;;;;;4906680;29;20053;-77
2021/12/17 16:07:44;;;;;;;8.18;5.57;;;8.80;99.90;;;;;;4887772;29;20127;-77
2021/12/17 16:11:06;;;;;;;11.40;6.78;;;8.80;99.90;;;;;;4888916;29;20045;-78
2021/12/17 16:18:41;;;;;;;7.20;5.57;;;8.70;99.90;;;;;;4892457;29;20079;-77
2021/12/17 16:21:07;;;;;;;7.25;5.40;;;8.80;99.90;;;;;;4907315;29;20518;-77